Time;durP1;ratioP1;P1;durP2;ratioP2;P2;SDS_P1;SDS_P2;PMS_P1;PMS_P2;Temp;Humidity;BMP_temperature;BMP_pressure;BME280_temperature;BME280_humidity;BME280_pressure;Samples;Min_cycle;Max_cycle;Signal;HPM_P1;HPM_P2
2023/09/12 00:00:05;;;;;;;;;;;;;;;20.25;49.30;98995.56;5034361;28;19912;-71
2023/09/12 00:02:30;;;;;;;;;;;;;;;20.25;49.28;98992.91;5034212;28;19913;-71
2023/09/12 00:04:55;;;;;;;;;;;;;;;20.26;49.39;98994.56;5032972;28;20458;-70
2023/09/12 00:07:21;;;;;;;;;;;;;;;20.23;49.49;98994.91;5034113;28;19917;-71
2023/09/12 00:09:46;;;;;;;;;;;;;;;20.20;49.46;98989.94;5032958;28;20303;-71
2023/09/12 00:12:14;;;;;;;;;;;;;;;20.19;49.70;98986.50;5032940;28;20369;-71
2023/09/12 00:14:39;;;;;;;;;;;;;;;20.19;49.70;98983.84;5034110;28;20004;-71
2023/09/12 00:17:04;;;;;;;;;;;;;;;20.17;49.87;98993.75;5033894;28;20011;-71
2023/09/12 00:19:29;;;;;;;;;;;;;;;20.19;49.69;98990.94;5016876;28;19919;-71
2023/09/12 00:21:55;;;;;;;;;;;;;;;20.13;49.65;99003.06;5032954;28;20358;-71
2023/09/12 00:24:20;;;;;;;;;;;;;;;20.08;49.69;98993.97;5032647;28;19920;-71
2023/09/12 00:26:45;;;;;;;;;;;;;;;20.07;49.54;98995.81;5034099;28;19921;-71
2023/09/12 00:29:11;;;;;;;;;;;;;;;20.04;49.64;98993.50;5033816;28;19940;-79
2023/09/12 00:31:36;;;;;;;;;;;;;;;20.00;49.55;98995.69;5015726;28;19944;-78
2023/09/12 00:34:01;;;;;;;;;;;;;;;19.97;49.57;98990.72;5015915;28;19913;-79
2023/09/12 00:36:27;;;;;;;;;;;;;;;19.97;49.54;98996.03;5032890;28;19917;-79
2023/09/12 00:38:52;;;;;;;;;;;;;;;19.98;49.67;98991.53;5015411;28;19913;-79
2023/09/12 00:41:17;;;;;;;;;;;;;;;19.98;49.64;98997.66;5033671;28;19920;-79
2023/09/12 00:43:43;;;;;;;;;;;;;;;19.93;49.79;98997.34;5032657;28;19968;-79
2023/09/12 00:46:08;;;;;;;;;;;;;;;19.91;49.80;98996.69;5032077;28;19913;-79
2023/09/12 00:48:33;;;;;;;;;;;;;;;19.89;49.83;98996.03;5033359;28;19913;-78
2023/09/12 00:50:58;;;;;;;;;;;;;;;19.87;49.85;98990.91;5033670;28;19920;-79
2023/09/12 00:53:24;;;;;;;;;;;;;;;19.84;49.91;98998.38;5043484;28;19913;-79
2023/09/12 00:55:56;;;;;;;;;;;;;;;19.80;49.94;98986.47;5044109;28;19913;-78
2023/09/12 00:58:21;;;;;;;;;;;;;;;19.81;49.93;98988.09;5027799;28;19952;-79
2023/09/12 01:00:47;;;;;;;;;;;;;;;19.81;49.93;98988.09;5039535;28;19912;-79
2023/09/12 01:03:13;;;;;;;;;;;;;;;19.77;50.01;98995.56;5032729;28;20007;-79
2023/09/12 01:05:38;;;;;;;;;;;;;;;19.69;50.32;98987.63;5032343;28;20025;-79
2023/09/12 01:08:03;;;;;;;;;;;;;;;19.66;50.50;98986.13;5032751;28;20377;-79
2023/09/12 01:10:29;;;;;;;;;;;;;;;19.65;50.58;98992.41;5016550;28;20355;-79
2023/09/12 01:12:54;;;;;;;;;;;;;;;19.66;50.60;98995.91;5033195;28;19917;-79
2023/09/12 01:15:19;;;;;;;;;;;;;;;19.67;50.55;98986.94;5033209;28;20011;-80
2023/09/12 01:17:45;;;;;;;;;;;;;;;19.65;50.82;98994.25;5033655;28;19939;-79
2023/09/12 01:20:33;;;;;;;;;;;;;;;19.65;50.66;98986.31;5033368;28;19917;-79
2023/09/12 01:23:01;;;;;;;;;;;;;;;19.65;50.81;98999.53;5032383;28;19913;-79
2023/09/12 01:25:29;;;;;;;;;;;;;;;19.61;50.85;99001.72;5033492;28;19913;-79
2023/09/12 01:27:55;;;;;;;;;;;;;;;19.59;50.76;98990.44;5033293;28;20304;-80
2023/09/12 01:30:20;;;;;;;;;;;;;;;19.58;50.80;98994.09;5015347;28;19970;-80
2023/09/12 01:32:46;;;;;;;;;;;;;;;19.56;50.80;98988.16;5014860;28;19913;-80
2023/09/12 01:35:11;;;;;;;;;;;;;;;19.55;50.90;98990.97;5031511;28;19995;-80
2023/09/12 01:37:37;;;;;;;;;;;;;;;19.50;51.10;98999.41;5033048;28;19913;-80
2023/09/12 01:40:03;;;;;;;;;;;;;;;19.51;51.20;98993.09;5031627;28;20292;-80
2023/09/12 01:42:29;;;;;;;;;;;;;;;19.49;51.21;98997.75;5031143;28;19920;-79
2023/09/12 01:44:55;;;;;;;;;;;;;;;19.48;51.29;98988.16;5032181;28;20411;-80
2023/09/12 01:47:20;;;;;;;;;;;;;;;19.46;51.32;98990.16;5015045;28;20018;-77
2023/09/12 01:49:47;;;;;;;;;;;;;;;19.44;51.41;98992.16;5031306;28;19913;-77
2023/09/12 01:52:12;;;;;;;;;;;;;;;19.45;51.48;98988.50;5031093;28;19967;-78
2023/09/12 01:54:37;;;;;;;;;;;;;;;19.42;51.53;98983.53;5031699;28;19917;-74
2023/09/12 01:57:03;;;;;;;;;;;;;;;19.43;51.50;98982.53;5031366;28;19913;-74
2023/09/12 01:59:29;;;;;;;;;;;;;;;19.42;51.65;98983.53;5032757;28;19913;-70
2023/09/12 02:01:54;;;;;;;;;;;;;;;19.42;51.65;98988.81;5030967;28;19920;-71
2023/09/12 02:04:19;;;;;;;;;;;;;;;19.39;51.74;98983.84;5014384;28;19913;-70
2023/09/12 02:06:45;;;;;;;;;;;;;;;19.37;51.74;98986.69;5031572;28;19913;-70
2023/09/12 02:09:10;;;;;;;;;;;;;;;19.38;51.76;98987.53;5032427;28;19921;-70
2023/09/12 02:11:35;;;;;;;;;;;;;;;19.36;51.84;98978.94;5031591;28;19913;-70
2023/09/12 02:14:01;;;;;;;;;;;;;;;19.38;51.84;98990.16;5031962;28;20372;-70
2023/09/12 02:16:26;;;;;;;;;;;;;;;19.37;51.83;98985.84;5032349;28;19970;-70
2023/09/12 02:18:51;;;;;;;;;;;;;;;19.35;51.81;98983.38;5031059;28;19913;-70
2023/09/12 02:21:16;;;;;;;;;;;;;;;19.35;51.81;98988.66;5014188;28;20019;-70
2023/09/12 02:23:42;;;;;;;;;;;;;;;19.33;51.78;98983.53;5032224;28;19943;-70
2023/09/12 02:26:07;;;;;;;;;;;;;;;19.32;51.84;98994.28;5032146;28;19913;-70
2023/09/12 02:28:32;;;;;;;;;;;;;;;19.33;51.78;98990.66;5031983;28;19964;-70
2023/09/12 02:30:58;;;;;;;;;;;;;;;19.36;51.71;98997.47;5030759;28;19913;-70
2023/09/12 02:33:23;;;;;;;;;;;;;;;19.34;51.71;98990.50;5030834;28;19936;-70
2023/09/12 02:35:48;;;;;;;;;;;;;;;19.33;51.67;98994.13;5030698;28;19956;-70
2023/09/12 02:38:14;;;;;;;;;;;;;;;19.31;51.70;98988.19;5030844;28;19913;-70
2023/09/12 02:40:39;;;;;;;;;;;;;;;19.29;51.71;98989.34;5030688;28;19917;-70
2023/09/12 02:43:05;;;;;;;;;;;;;;;19.27;51.80;98980.75;5013911;28;20388;-70
2023/09/12 02:45:30;;;;;;;;;;;;;;;19.29;51.74;98987.53;5032034;28;20023;-71
2023/09/12 02:47:55;;;;;;;;;;;;;;;19.32;51.67;98987.19;5030553;28;19920;-70
2023/09/12 02:50:21;;;;;;;;;;;;;;;19.30;51.66;98980.41;5030714;28;19920;-70
2023/09/12 02:52:46;;;;;;;;;;;;;;;19.28;51.89;98985.88;5031745;28;19913;-70
2023/09/12 02:55:11;;;;;;;;;;;;;;;19.25;51.82;98986.19;5029933;28;19952;-70
2023/09/12 02:57:37;;;;;;;;;;;;;;;19.26;51.90;98971.16;5027404;28;19975;-70
2023/09/12 03:00:03;;;;;;;;;;;;;;;19.27;51.94;98981.56;5011844;28;19913;-70
2023/09/12 03:02:31;;;;;;;;;;;;;;;19.27;51.86;98981.56;5012174;28;19913;-71
2023/09/12 03:04:56;;;;;;;;;;;;;;;19.24;51.91;98981.06;5014961;28;20011;-71
2023/09/12 03:07:22;;;;;;;;;;;;;;;19.21;52.06;98979.59;5012823;28;20027;-70
2023/09/12 03:09:50;;;;;;;;;;;;;;;19.20;52.11;98980.59;5014168;28;19952;-68
2023/09/12 03:12:15;;;;;;;;;;;;;;;19.79;52.30;98979.50;5016786;28;20371;-67
2023/09/12 03:14:41;;;;;;;;;;;;;;;20.40;50.67;98988.53;5014755;28;19917;-70
2023/09/12 03:17:06;;;;;;;;;;;;;;;20.97;49.02;98983.88;4997814;28;19913;-69
2023/09/12 03:19:31;;;;;;;;;;;;;;;21.19;48.59;98986.66;5014239;28;19921;-69
2023/09/12 03:21:57;;;;;;;;;;;;;;;21.34;48.49;98984.88;5013671;28;19937;-68
2023/09/12 03:24:24;;;;;;;;;;;;;;;21.55;48.41;98986.84;5016140;28;20428;-87
2023/09/12 03:26:49;;;;;;;;;;;;;;;21.45;47.71;98986.25;5005156;28;19913;-86
2023/09/12 03:29:15;;;;;;;;;;;;;;;21.32;47.42;98992.19;5016050;28;20355;-87
2023/09/12 03:31:40;;;;;;;;;;;;;;;21.19;47.38;98992.81;5020511;28;19921;-88
2023/09/12 03:34:06;;;;;;;;;;;;;;;21.08;47.31;98986.09;5015717;28;20002;-89
2023/09/12 03:36:31;;;;;;;;;;;;;;;20.99;47.37;98992.47;5017626;28;19923;-89
2023/09/12 03:38:56;;;;;;;;;;;;;;;20.93;47.52;98995.84;5015690;28;19913;-81
2023/09/12 03:41:25;;;;;;;;;;;;;;;20.85;47.56;98993.25;5000349;28;20032;-86
2023/09/12 03:43:54;;;;;;;;;;;;;;;20.78;47.49;98987.81;5037921;28;19910;-82
2023/09/12 03:46:20;;;;;;;;;;;;;;;20.72;47.73;98989.34;5039235;28;19901;-78
2023/09/12 03:48:45;;;;;;;;;;;;;;;21.15;50.13;98991.50;5024655;28;19929;-81
2023/09/12 03:51:11;;;;;;;;;;;;;;;21.25;48.94;98991.25;5013893;28;19921;-80
2023/09/12 03:53:36;;;;;;;;;;;;;;;21.22;48.50;98992.47;5029086;28;19913;-79
2023/09/12 03:56:01;;;;;;;;;;;;;;;21.20;48.23;98993.63;5023728;28;19913;-78
2023/09/12 03:58:27;;;;;;;;;;;;;;;21.15;48.13;98992.31;5020587;28;19920;-77
2023/09/12 04:00:52;;;;;;;;;;;;;;;21.35;48.32;98999.81;5023815;28;20034;-79
2023/09/12 04:03:17;;;;;;;;;;;;;;;21.44;47.71;99001.38;5022661;28;19928;-71
2023/09/12 04:05:43;;;;;;;;;;;;;;;21.63;46.98;99005.38;5023353;28;19920;-69
2023/09/12 04:08:08;;;;;;;;;;;;;;;21.84;46.43;98999.31;5020066;28;19921;-70
2023/09/12 04:10:33;;;;;;;;;;;;;;;22.16;45.48;99002.59;5019388;28;19937;-70
2023/09/12 04:12:59;;;;;;;;;;;;;;;22.49;44.63;99010.19;5018765;28;20005;-71
2023/09/12 04:15:24;;;;;;;;;;;;;;;22.90;43.49;99006.09;5015944;28;19913;-69
2023/09/12 04:17:49;;;;;;;;;;;;;;;23.39;42.37;99000.00;5013518;28;20376;-68
2023/09/12 04:20:14;;;;;;;;;;;;;;;23.88;41.19;99008.94;5013220;28;20444;-69
2023/09/12 04:22:41;;;;;;;;;;;;;;;24.36;40.10;99006.28;5013182;28;19914;-69
2023/09/12 04:25:06;;;;;;;;;;;;;;;24.93;38.75;99006.03;4996691;28;19920;-70
2023/09/12 04:27:32;;;;;;;;;;;;;;;25.45;37.72;99000.94;5012804;28;19914;-70
2023/09/12 04:29:57;;;;;;;;;;;;;;;26.11;36.78;99000.00;5012930;28;20270;-69
2023/09/12 04:32:23;;;;;;;;;;;;;;;26.70;35.37;99003.41;5012777;28;19913;-69
2023/09/12 04:34:51;;;;;;;;;;;;;;;27.32;34.28;98996.63;4996359;28;19920;-70
2023/09/12 04:37:16;;;;;;;;;;;;;;;27.95;33.32;98999.09;5012691;28;19914;-69
2023/09/12 04:39:42;;;;;;;;;;;;;;;28.66;32.08;99001.31;5013925;28;19987;-71
2023/09/12 04:42:07;;;;;;;;;;;;;;;29.23;31.25;98999.00;5014624;28;20296;-71
2023/09/12 04:44:36;;;;;;;;;;;;;;;29.84;30.14;99003.34;5012658;28;19921;-70
2023/09/12 04:47:02;;;;;;;;;;;;;;;30.40;29.03;99009.06;5012655;28;20377;-70
2023/09/12 04:49:27;;;;;;;;;;;;;;;30.91;28.35;99007.28;5013643;28;20309;-70
2023/09/12 04:51:53;;;;;;;;;;;;;;;31.36;27.67;99009.13;4996051;28;19914;-69
2023/09/12 04:54:18;;;;;;;;;;;;;;;31.88;27.41;99009.84;5013669;28;19913;-70
2023/09/12 04:56:43;;;;;;;;;;;;;;;32.27;26.56;99007.13;4996596;28;20273;-68
2023/09/12 04:59:09;;;;;;;;;;;;;;;32.64;25.91;98999.19;5012112;28;20028;-69
2023/09/12 05:01:34;;;;;;;;;;;;;;;33.12;25.41;99004.72;5012362;28;19913;-71
2023/09/12 05:03:59;;;;;;;;;;;;;;;33.53;24.92;98999.59;5012041;28;19975;-70
2023/09/12 05:06:24;;;;;;;;;;;;;;;33.83;24.48;99006.28;5012176;28;19964;-71
2023/09/12 05:08:50;;;;;;;;;;;;;;;34.13;23.92;99012.91;4995642;28;20304;-70
2023/09/12 05:11:15;;;;;;;;;;;;;;;34.51;22.78;99008.19;4995266;28;19964;-71
2023/09/12 05:13:41;;;;;;;;;;;;;;;34.88;22.91;99011.78;5013419;28;20004;-70
2023/09/12 05:16:06;;;;;;;;;;;;;;;35.20;22.38;99016.91;5012100;28;19914;-69
2023/09/12 05:18:31;;;;;;;;;;;;;;;35.53;22.08;99012.00;4995524;28;19913;-71
2023/09/12 05:20:57;;;;;;;;;;;;;;;35.68;21.86;99011.16;5013038;28;19940;-70
2023/09/12 05:23:22;;;;;;;;;;;;;;;35.93;21.54;99009.47;5011780;28;20369;-70
2023/09/12 05:25:47;;;;;;;;;;;;;;;36.13;21.17;99012.09;5012727;28;19922;-72
2023/09/12 05:28:15;;;;;;;;;;;;;;;36.34;20.62;99017.44;5012316;28;19964;-70
2023/09/12 05:30:41;;;;;;;;;;;;;;;36.52;20.33;99010.56;4995813;28;19921;-71
2023/09/12 05:33:06;;;;;;;;;;;;;;;36.79;20.17;99010.13;5012031;28;19914;-71
2023/09/12 05:35:32;;;;;;;;;;;;;;;36.99;20.07;99011.88;4995466;28;20399;-71
2023/09/12 05:37:57;;;;;;;;;;;;;;;37.18;19.92;99008.44;5011439;28;19920;-70
2023/09/12 05:40:22;;;;;;;;;;;;;;;37.23;19.74;99008.44;5011871;28;20004;-73
2023/09/12 05:42:48;;;;;;;;;;;;;;;37.43;19.24;99012.84;5013156;28;20015;-70
2023/09/12 05:45:13;;;;;;;;;;;;;;;37.61;19.51;99014.84;4995218;28;19913;-70
2023/09/12 05:47:38;;;;;;;;;;;;;;;37.78;19.04;99008.13;5011455;28;19914;-70
2023/09/12 05:50:07;;;;;;;;;;;;;;;37.89;19.55;99009.66;5012785;28;20330;-70
2023/09/12 05:52:32;;;;;;;;;;;;;;;37.98;19.06;99007.88;4995565;28;19913;-71
2023/09/12 05:54:58;;;;;;;;;;;;;;;38.07;18.92;99010.78;4995126;28;20335;-70
2023/09/12 05:57:23;;;;;;;;;;;;;;;38.22;18.85;99009.78;5012531;28;19914;-70
2023/09/12 05:59:49;;;;;;;;;;;;;;;38.40;18.67;99019.09;5012961;28;19929;-70
2023/09/12 06:02:14;;;;;;;;;;;;;;;38.54;18.89;99009.06;5012810;28;19913;-70
2023/09/12 06:04:39;;;;;;;;;;;;;;;38.53;18.73;99017.53;5011385;28;20007;-72
2023/09/12 06:07:05;;;;;;;;;;;;;;;38.60;18.21;99014.44;5011881;28;20028;-71
2023/09/12 06:09:30;;;;;;;;;;;;;;;38.61;18.31;99019.59;5011188;28;19917;-70
2023/09/12 06:11:55;;;;;;;;;;;;;;;38.70;18.47;99023.31;5011461;28;19968;-70
2023/09/12 06:14:21;;;;;;;;;;;;;;;38.71;18.00;99019.47;5011138;28;20373;-70
2023/09/12 06:16:46;;;;;;;;;;;;;;;38.80;18.15;99021.53;5012571;28;20443;-70
2023/09/12 06:19:11;;;;;;;;;;;;;;;38.87;18.27;99020.06;5011575;28;20432;-70
2023/09/12 06:21:37;;;;;;;;;;;;;;;38.87;18.10;99028.22;5011332;28;20277;-71
2023/09/12 06:24:12;;;;;;;;;;;;;;;38.90;18.66;99026.81;5011086;28;19945;-70
2023/09/12 06:26:38;;;;;;;;;;;;;;;39.07;18.02;99032.56;5011344;28;19913;-69
2023/09/12 06:29:03;;;;;;;;;;;;;;;39.00;17.89;99031.28;5011405;28;19996;-70
2023/09/12 06:31:28;;;;;;;;;;;;;;;39.04;18.38;99030.38;4994955;28;19949;-70
2023/09/12 06:33:54;;;;;;;;;;;;;;;39.10;18.35;99027.63;5011324;28;19913;-70
2023/09/12 06:36:19;;;;;;;;;;;;;;;39.30;18.14;99027.28;5011110;28;19917;-70
2023/09/12 06:38:44;;;;;;;;;;;;;;;39.26;18.36;99027.03;4999200;28;19975;-71
2023/09/12 06:41:09;;;;;;;;;;;;;;;39.33;18.06;99034.88;5016109;28;20301;-70
2023/09/12 06:43:35;;;;;;;;;;;;;;;39.36;18.39;99042.44;4998625;28;19928;-69
2023/09/12 06:46:00;;;;;;;;;;;;;;;39.51;18.05;99035.09;5014867;28;19921;-71
2023/09/12 06:48:26;;;;;;;;;;;;;;;39.43;17.99;99023.72;5015001;28;19918;-70
2023/09/12 06:50:52;;;;;;;;;;;;;;;39.48;18.05;99024.75;4998479;28;19920;-71
2023/09/12 06:53:17;;;;;;;;;;;;;;;39.53;18.15;99036.41;5014413;28;19914;-70
2023/09/12 06:55:42;;;;;;;;;;;;;;;39.52;17.89;99039.41;5016486;28;19913;-70
2023/09/12 06:58:08;;;;;;;;;;;;;;;39.47;17.70;99040.31;5015955;28;20009;-71
2023/09/12 07:00:33;;;;;;;;;;;;;;;39.62;17.96;99040.06;5015943;28;19959;-72
2023/09/12 07:02:58;;;;;;;;;;;;;;;39.68;17.62;99040.78;5014666;28;19914;-72
2023/09/12 07:05:24;;;;;;;;;;;;;;;39.33;18.35;99044.94;5014652;28;19976;-72
2023/09/12 07:07:49;;;;;;;;;;;;;;;39.49;17.82;99046.31;5016448;28;19917;-72
2023/09/12 07:10:14;;;;;;;;;;;;;;;39.63;18.14;99051.78;5014797;28;19965;-75
2023/09/12 07:12:39;;;;;;;;;;;;;;;39.70;17.79;99038.56;5014298;28;19913;-71
2023/09/12 07:15:05;;;;;;;;;;;;;;;39.57;17.93;99040.19;4998538;28;19924;-71
2023/09/12 07:17:31;;;;;;;;;;;;;;;39.73;17.68;99040.69;4997735;28;19920;-71
2023/09/12 07:19:57;;;;;;;;;;;;;;;39.72;17.82;99041.00;5014554;28;20000;-70
2023/09/12 07:22:22;;;;;;;;;;;;;;;39.86;17.80;99043.72;5014105;28;19913;-71
2023/09/12 07:24:48;;;;;;;;;;;;;;;39.92;17.76;99045.25;4998101;28;19920;-71
2023/09/12 07:27:13;;;;;;;;;;;;;;;40.02;17.85;99046.97;4997988;28;19913;-72
2023/09/12 07:29:38;;;;;;;;;;;;;;;40.13;17.60;99040.97;5014445;28;19913;-71
2023/09/12 07:32:04;;;;;;;;;;;;;;;40.14;17.98;99039.06;4997674;28;20462;-75
2023/09/12 07:34:29;;;;;;;;;;;;;;;40.09;18.09;99045.47;4997580;28;20056;-72
2023/09/12 07:36:54;;;;;;;;;;;;;;;40.18;17.83;99036.53;5013917;28;19923;-73
2023/09/12 07:39:20;;;;;;;;;;;;;;;40.29;17.56;99037.94;5013814;28;19914;-71
2023/09/12 07:41:45;;;;;;;;;;;;;;;40.32;17.69;99040.84;4997427;28;19917;-71
2023/09/12 07:44:15;;;;;;;;;;;;;;;40.26;17.68;99052.22;4997543;28;19914;-72
2023/09/12 07:46:40;;;;;;;;;;;;;;;40.12;17.89;99041.28;4998460;28;19960;-74
2023/09/12 07:49:07;;;;;;;;;;;;;;;40.23;17.65;99037.25;4996280;28;19969;-74
2023/09/12 07:51:33;;;;;;;;;;;;;;;40.39;17.76;99043.19;5013788;28;19913;-71
2023/09/12 07:53:59;;;;;;;;;;;;;;;40.38;17.72;99041.56;5013458;28;20391;-72
2023/09/12 07:56:24;;;;;;;;;;;;;;;40.40;17.85;99033.84;5013950;28;19913;-72
2023/09/12 07:58:49;;;;;;;;;;;;;;;40.49;17.56;99033.97;5013509;28;19979;-72
2023/09/12 08:01:14;;;;;;;;;;;;;;;40.53;17.61;99031.41;5013477;28;19914;-74
2023/09/12 08:03:41;;;;;;;;;;;;;;;40.53;17.41;99031.41;5014745;28;20016;-72
2023/09/12 08:06:07;;;;;;;;;;;;;;;40.67;17.64;99021.22;5013513;28;20016;-71
2023/09/12 08:08:32;;;;;;;;;;;;;;;40.64;17.17;99030.03;4997279;28;20032;-72
2023/09/12 08:10:57;;;;;;;;;;;;;;;40.56;17.88;99022.59;4997070;28;19920;-74
2023/09/12 08:13:25;;;;;;;;;;;;;;;40.66;17.30;99028.63;4997203;28;19914;-72
2023/09/12 08:15:50;;;;;;;;;;;;;;;40.57;17.38;99018.75;5013179;28;19914;-73
2023/09/12 08:18:16;;;;;;;;;;;;;;;40.60;17.62;99020.88;4997040;28;20301;-70
2023/09/12 08:20:43;;;;;;;;;;;;;;;40.62;17.45;99019.41;5013537;28;19963;-72
2023/09/12 08:23:08;;;;;;;;;;;;;;;40.76;17.29;99013.09;5012993;28;19976;-71
2023/09/12 08:25:33;;;;;;;;;;;;;;;40.85;16.99;99016.72;5013085;28;20407;-72
2023/09/12 08:27:59;;;;;;;;;;;;;;;40.89;17.40;99016.91;5013054;28;20012;-72
2023/09/12 08:30:25;;;;;;;;;;;;;;;40.96;17.32;99017.25;4996588;28;19920;-71
2023/09/12 08:32:51;;;;;;;;;;;;;;;40.97;17.28;99019.69;4996392;28;20392;-72
2023/09/12 08:35:16;;;;;;;;;;;;;;;41.01;17.36;99012.47;5012985;28;19925;-71
2023/09/12 08:37:41;;;;;;;;;;;;;;;41.06;16.91;99017.03;4997231;28;19913;-72
2023/09/12 08:40:08;;;;;;;;;;;;;;;41.07;17.25;99006.88;5013307;28;20004;-71
2023/09/12 08:42:40;;;;;;;;;;;;;;;41.01;17.08;99007.00;5012648;28;19955;-71
2023/09/12 08:45:11;;;;;;;;;;;;;;;41.03;17.14;99006.69;5012861;28;19987;-73
2023/09/12 08:47:37;;;;;;;;;;;;;;;41.05;16.90;99016.22;4996366;28;19971;-73
2023/09/12 08:50:03;;;;;;;;;;;;;;;41.13;16.58;99003.69;4996197;28;19952;-72
2023/09/12 08:52:28;;;;;;;;;;;;;;;40.84;16.74;99002.19;4995776;28;20368;-73
2023/09/12 08:54:53;;;;;;;;;;;;;;;40.62;17.35;99007.66;4996399;28;19920;-73
2023/09/12 08:57:19;;;;;;;;;;;;;;;40.53;17.48;99004.06;4996175;28;19971;-77
2023/09/12 08:59:44;;;;;;;;;;;;;;;40.63;17.51;99001.88;5012549;28;20361;-71
2023/09/12 09:02:10;;;;;;;;;;;;;;;40.53;17.53;99004.06;5012341;28;20339;-71
2023/09/12 09:04:35;;;;;;;;;;;;;;;40.63;17.05;99009.31;4995909;28;19914;-71
2023/09/12 09:07:00;;;;;;;;;;;;;;;40.26;17.12;98997.53;4995779;28;19918;-73
2023/09/12 09:09:26;;;;;;;;;;;;;;;40.29;17.40;99000.44;5012652;28;19922;-72
2023/09/12 09:11:52;;;;;;;;;;;;;;;40.36;17.16;98999.22;4995797;28;19943;-72
2023/09/12 09:14:17;;;;;;;;;;;;;;;40.33;17.68;99001.47;4995921;28;19913;-73
2023/09/12 09:16:42;;;;;;;;;;;;;;;40.28;17.31;99003.47;5013531;28;19914;-73
2023/09/12 09:19:11;;;;;;;;;;;;;;;40.26;17.27;99001.06;4995889;28;20063;-71
2023/09/12 09:21:36;;;;;;;;;;;;;;;40.24;17.75;99000.56;5011971;28;19939;-73
2023/09/12 09:24:08;;;;;;;;;;;;;;;40.20;17.30;99002.31;5012056;28;20000;-73
2023/09/12 09:26:43;;;;;;;;;;;;;;;40.09;17.55;98999.00;4995592;28;19913;-75
2023/09/12 09:29:09;;;;;;;;;;;;;;;40.02;17.47;99000.53;5011965;28;19913;-75
2023/09/12 09:31:34;;;;;;;;;;;;;;;39.74;17.57;98990.41;5011564;28;19913;-71
2023/09/12 09:34:01;;;;;;;;;;;;;;;39.67;17.19;98998.19;5011583;28;19957;-70
2023/09/12 09:36:26;;;;;;;;;;;;;;;39.11;17.96;98996.47;4995195;28;20440;-72
2023/09/12 09:38:52;;;;;;;;;;;;;;;39.17;18.05;98992.56;4995235;28;19968;-71
2023/09/12 09:41:21;;;;;;;;;;;;;;;39.12;17.98;98988.00;4995337;28;19913;-71
2023/09/12 09:43:49;;;;;;;;;;;;;;;38.97;18.06;98980.88;5011729;28;19923;-70
2023/09/12 09:46:17;;;;;;;;;;;;;;;38.79;17.80;98982.50;5011673;28;19920;-72
2023/09/12 09:48:50;;;;;;;;;;;;;;;38.16;18.16;98980.97;4995713;28;20359;-72
2023/09/12 09:51:15;;;;;;;;;;;;;;;38.06;18.81;98984.63;5012932;28;19913;-72
2023/09/12 09:53:40;;;;;;;;;;;;;;;38.16;18.80;98986.44;5011488;28;20337;-71
2023/09/12 09:56:12;;;;;;;;;;;;;;;38.14;18.82;98983.97;5011721;28;19957;-71
2023/09/12 09:58:53;;;;;;;;;;;;;;;37.90;19.00;98977.78;5011219;28;19917;-71
2023/09/12 10:01:19;;;;;;;;;;;;;;;37.65;19.42;98972.31;5011447;28;19913;-71
2023/09/12 10:03:48;;;;;;;;;;;;;;;37.71;19.66;98972.28;5011415;28;20304;-71
2023/09/12 10:06:14;;;;;;;;;;;;;;;37.68;19.49;98972.84;5011693;28;20293;-71
2023/09/12 10:08:40;;;;;;;;;;;;;;;37.57;19.76;98963.97;4995107;28;19975;-71
2023/09/12 10:11:05;;;;;;;;;;;;;;;37.59;19.68;98962.59;5011077;28;20004;-72
2023/09/12 10:13:32;;;;;;;;;;;;;;;37.49;19.89;98965.41;4998558;28;19914;-70
2023/09/12 10:15:58;;;;;;;;;;;;;;;37.45;19.41;98954.31;4999243;28;19913;-73
2023/09/12 10:18:24;;;;;;;;;;;;;;;37.41;19.84;98961.41;4999079;28;20384;-76
2023/09/12 10:20:53;;;;;;;;;;;;;;;37.26;19.61;98951.50;4998637;28;19921;-74
2023/09/12 10:23:41;;;;;;;;;;;;;;;36.76;19.79;98957.09;4998795;28;19914;-74
2023/09/12 10:26:06;;;;;;;;;;;;;;;36.82;19.62;98951.66;4999411;28;19925;-73
2023/09/12 10:28:32;;;;;;;;;;;;;;;36.77;19.71;98960.66;5015564;28;19917;-72
2023/09/12 10:30:57;;;;;;;;;;;;;;;36.71;19.38;98948.16;5015210;28;19971;-71
2023/09/12 10:33:22;;;;;;;;;;;;;;;36.57;19.85;98934.41;4999150;28;19961;-71
2023/09/12 10:35:48;;;;;;;;;;;;;;;36.52;20.12;98940.69;4998411;28;19917;-73
2023/09/12 10:38:14;;;;;;;;;;;;;;;36.50;20.19;98940.16;5015183;28;19914;-71
2023/09/12 10:40:39;;;;;;;;;;;;;;;36.39;20.36;98936.72;5015393;28;19913;-72
2023/09/12 10:43:05;;;;;;;;;;;;;;;36.28;20.46;98931.59;5016271;28;20016;-71
2023/09/12 10:45:33;;;;;;;;;;;;;;;36.20;20.43;98938.44;5014820;28;20012;-72
2023/09/12 10:47:59;;;;;;;;;;;;;;;36.13;20.64;98930.59;4998516;28;19920;-70
2023/09/12 10:50:24;;;;;;;;;;;;;;;35.98;20.41;98930.69;4998163;28;20324;-72
2023/09/12 10:52:49;;;;;;;;;;;;;;;35.84;20.89;98930.50;4998217;28;20361;-72
2023/09/12 10:55:16;;;;;;;;;;;;;;;35.78;20.84;98921.53;4998354;28;19941;-71
2023/09/12 10:58:00;;;;;;;;;;;;;;;35.55;20.32;98933.00;4998052;28;19921;-76
2023/09/12 11:00:25;;;;;;;;;;;;;;;35.09;20.90;98920.34;5014543;28;19914;-71
2023/09/12 11:02:51;;;;;;;;;;;;;;;34.57;21.75;98931.22;4998063;28;19913;-73
2023/09/12 11:05:33;;;;;;;;;;;;;;;34.42;21.39;98929.28;5014861;28;19921;-73
2023/09/12 11:07:58;;;;;;;;;;;;;;;34.43;21.67;98920.09;5014415;28;19944;-71
2023/09/12 11:10:24;;;;;;;;;;;;;;;34.30;21.48;98912.50;5014532;28;20372;-71
2023/09/12 11:12:50;;;;;;;;;;;;;;;34.22;22.30;98905.69;4997722;28;19913;-71
2023/09/12 11:15:16;;;;;;;;;;;;;;;34.20;22.18;98905.13;5014487;28;19920;-75
2023/09/12 11:17:45;;;;;;;;;;;;;;;34.17;22.36;98902.13;5014408;28;19914;-70
2023/09/12 11:20:11;;;;;;;;;;;;;;;34.03;22.47;98904.53;5014487;28;19913;-70
2023/09/12 11:22:39;;;;;;;;;;;;;;;33.97;22.77;98884.78;5013723;28;19972;-71
2023/09/12 11:25:05;;;;;;;;;;;;;;;33.83;22.57;98892.59;5014256;28;19914;-72
2023/09/12 11:28:02;;;;;;;;;;;;;;;33.70;22.71;98893.06;5014217;28;20384;-71
2023/09/12 11:30:31;;;;;;;;;;;;;;;33.64;22.71;98886.00;4998484;28;19972;-74
2023/09/12 11:32:56;;;;;;;;;;;;;;;33.26;23.52;98896.13;5014468;28;19917;-71
2023/09/12 11:35:25;;;;;;;;;;;;;;;33.16;23.23;98886.84;4997335;28;19924;-70
2023/09/12 11:37:51;;;;;;;;;;;;;;;33.05;23.54;98887.84;4997774;28;20387;-72
2023/09/12 11:40:17;;;;;;;;;;;;;;;33.01;23.36;98884.03;4997448;28;19917;-72
2023/09/12 11:42:42;;;;;;;;;;;;;;;32.88;23.41;98881.78;4997490;28;20444;-71
2023/09/12 11:45:08;;;;;;;;;;;;;;;32.62;23.82;98873.44;5013871;28;19914;-72
2023/09/12 11:47:33;;;;;;;;;;;;;;;32.50;24.10;98872.81;4997378;28;19921;-77
2023/09/12 11:49:59;;;;;;;;;;;;;;;32.51;24.14;98869.84;4997513;28;19913;-72
2023/09/12 11:52:24;;;;;;;;;;;;;;;32.37;24.41;98874.91;4997202;28;20327;-71
2023/09/12 11:54:49;;;;;;;;;;;;;;;32.33;24.08;98873.75;5013916;28;19967;-70
2023/09/12 11:57:15;;;;;;;;;;;;;;;32.29;24.39;98872.63;5013113;28;19940;-70
2023/09/12 11:59:41;;;;;;;;;;;;;;;32.20;24.55;98871.50;5013516;28;19913;-71
2023/09/12 12:02:07;;;;;;;;;;;;;;;32.25;24.40;98871.53;4997199;28;19928;-74
2023/09/12 12:04:34;;;;;;;;;;;;;;;32.22;24.52;98866.66;4997566;28;19920;-70
2023/09/12 12:06:59;;;;;;;;;;;;;;;32.15;24.67;98858.75;5013269;28;19921;-73
2023/09/12 12:09:24;;;;;;;;;;;;;;;32.23;24.74;98863.69;4997129;28;19920;-70
2023/09/12 12:11:50;;;;;;;;;;;;;;;32.16;24.49;98854.16;5013194;28;19914;-70
2023/09/12 12:14:16;;;;;;;;;;;;;;;32.06;24.77;98846.75;5013115;28;19921;-71
2023/09/12 12:16:42;;;;;;;;;;;;;;;31.92;24.55;98852.53;5014753;28;19914;-71
2023/09/12 12:19:07;;;;;;;;;;;;;;;31.90;24.90;98849.28;4996983;28;19921;-70
2023/09/12 12:21:33;;;;;;;;;;;;;;;31.80;24.78;98842.97;4996472;28;20381;-70
2023/09/12 12:24:02;;;;;;;;;;;;;;;31.84;24.89;98844.91;5013165;28;20384;-71
2023/09/12 12:26:28;;;;;;;;;;;;;;;31.92;24.80;98844.44;4996256;28;20308;-70
2023/09/12 12:28:53;;;;;;;;;;;;;;;31.98;24.84;98845.31;4996522;28;19921;-70
2023/09/12 12:31:19;;;;;;;;;;;;;;;31.84;24.89;98839.50;5013321;28;19968;-70
2023/09/12 12:33:48;;;;;;;;;;;;;;;31.87;25.16;98840.91;5013853;28;19913;-70
2023/09/12 12:36:13;;;;;;;;;;;;;;;31.86;24.97;98836.56;5012241;28;19983;-70
2023/09/12 12:38:39;;;;;;;;;;;;;;;31.77;24.96;98836.22;4996424;28;19914;-70
2023/09/12 12:41:04;;;;;;;;;;;;;;;31.82;24.87;98838.97;5012711;28;20003;-69